Time;durP1;ratioP1;P1;durP2;ratioP2;P2;SDS_P1;SDS_P2;PMS_P1;PMS_P2;Temp;Humidity;BMP_temperature;BMP_pressure;BME280_temperature;BME280_humidity;BME280_pressure;Samples;Min_cycle;Max_cycle;Signal;HPM_P1;HPM_P2
2023/09/22 00:00:59;;;;;;;0.10;0.10;;;;;;;;;;5005416;28;20049;-91
2023/09/22 00:03:26;;;;;;;0.10;0.10;;;;;;;;;;5024735;28;20044;-91
2023/09/22 00:05:52;;;;;;;0.10;0.10;;;;;;;;;;5021227;28;20048;-91
2023/09/22 00:08:19;;;;;;;0.10;0.10;;;;;;;;;;5015218;28;20040;-90
2023/09/22 00:10:45;;;;;;;0.10;0.10;;;;;;;;;;5018202;28;20056;-91
2023/09/22 00:13:11;;;;;;;0.10;0.10;;;;;;;;;;5023172;28;20017;-91
2023/09/22 00:15:37;;;;;;;0.20;0.20;;;;;;;;;;5014955;28;20093;-91
2023/09/22 00:18:03;;;;;;;0.10;0.10;;;;;;;;;;5014275;28;20472;-90
2023/09/22 00:20:30;;;;;;;0.32;0.32;;;;;;;;;;5016580;28;20076;-91
2023/09/22 00:22:56;;;;;;;0.20;0.20;;;;;;;;;;5015435;28;20037;-90
2023/09/22 00:25:22;;;;;;;0.30;0.30;;;;;;;;;;5009694;28;20453;-91
2023/09/22 00:27:48;;;;;;;0.20;0.20;;;;;;;;;;5016972;28;20397;-91
2023/09/22 00:30:14;;;;;;;0.15;0.15;;;;;;;;;;5003594;28;20048;-92
2023/09/22 00:32:40;;;;;;;0.20;0.20;;;;;;;;;;5024512;28;20045;-91
2023/09/22 00:35:06;;;;;;;0.20;0.20;;;;;;;;;;5023407;28;20044;-91
2023/09/22 00:37:36;;;;;;;0.10;0.10;;;;;;;;;;5018998;28;20124;-91
2023/09/22 00:40:02;;;;;;;0.30;0.30;;;;;;;;;;5009508;28;20064;-90
2023/09/22 00:42:28;;;;;;;0.20;0.20;;;;;;;;;;5016169;28;20442;-90
2023/09/22 00:44:54;;;;;;;0.15;0.15;;;;;;;;;;5015760;28;20045;-92
2023/09/22 00:47:20;;;;;;;0.20;0.20;;;;;;;;;;5011712;28;20041;-91
2023/09/22 00:49:48;;;;;;;0.10;0.10;;;;;;;;;;5036153;28;20131;-90
2023/09/22 00:52:14;;;;;;;0.25;0.25;;;;;;;;;;5024433;28;20548;-91
2023/09/22 00:54:41;;;;;;;0.22;0.22;;;;;;;;;;5023089;28;20041;-91
2023/09/22 00:57:07;;;;;;;0.20;0.20;;;;;;;;;;5023254;28;20045;-92
2023/09/22 00:59:33;;;;;;;0.10;0.10;;;;;;;;;;5017043;28;20041;-92
2023/09/22 01:02:00;;;;;;;0.17;0.17;;;;;;;;;;5008121;28;20035;-91
2023/09/22 01:04:26;;;;;;;0.20;0.20;;;;;;;;;;5022022;28;20042;-90
2023/09/22 01:06:52;;;;;;;0.20;0.20;;;;;;;;;;5019988;28;20060;-92
2023/09/22 01:09:18;;;;;;;0.10;0.10;;;;;;;;;;5020194;28;20052;-91
2023/09/22 01:11:44;;;;;;;0.10;0.10;;;;;;;;;;5020586;28;20045;-93
2023/09/22 01:14:10;;;;;;;0.20;0.20;;;;;;;;;;5016120;28;20033;-92
2023/09/22 01:16:37;;;;;;;0.20;0.20;;;;;;;;;;5016670;28;20486;-92
2023/09/22 01:19:03;;;;;;;0.20;0.20;;;;;;;;;;5022407;28;20417;-91
2023/09/22 01:21:29;;;;;;;0.20;0.20;;;;;;;;;;5019499;28;20076;-92
2023/09/22 01:23:57;;;;;;;0.10;0.10;;;;;;;;;;5010787;28;20064;-91
2023/09/22 01:26:24;;;;;;;0.20;0.20;;;;;;;;;;5010143;28;20107;-91
2023/09/22 01:28:50;;;;;;;0.10;0.10;;;;;;;;;;5011191;28;20042;-91
2023/09/22 01:31:16;;;;;;;0.10;0.10;;;;;;;;;;5004517;28;20041;-91
2023/09/22 01:33:45;;;;;;;0.20;0.20;;;;;;;;;;5007144;28;20042;-92
2023/09/22 01:36:12;;;;;;;0.20;0.20;;;;;;;;;;5020212;28;20041;-91
2023/09/22 01:38:39;;;;;;;0.10;0.10;;;;;;;;;;5022658;28;20030;-90
2023/09/22 01:41:06;;;;;;;0.20;0.20;;;;;;;;;;4997895;28;20042;-91
2023/09/22 01:43:32;;;;;;;0.30;0.30;;;;;;;;;;5020508;28;20052;-93
2023/09/22 01:45:58;;;;;;;0.20;0.20;;;;;;;;;;5009752;28;20021;-89
2023/09/22 01:48:24;;;;;;;0.15;0.15;;;;;;;;;;5022312;28;20042;-90
2023/09/22 01:50:50;;;;;;;0.10;0.10;;;;;;;;;;5022700;28;20084;-90
2023/09/22 01:53:16;;;;;;;0.20;0.20;;;;;;;;;;5022575;28;20049;-90
2023/09/22 01:55:45;;;;;;;0.20;0.20;;;;;;;;;;5020768;28;20037;-92
2023/09/22 01:58:11;;;;;;;0.30;0.30;;;;;;;;;;5012305;28;20040;-89
2023/09/22 02:00:38;;;;;;;0.20;0.20;;;;;;;;;;5017330;28;20046;-90
2023/09/22 02:03:05;;;;;;;0.30;0.30;;;;;;;;;;5007187;28;20125;-93
2023/09/22 02:05:31;;;;;;;0.25;0.25;;;;;;;;;;5021510;28;20037;-92
2023/09/22 02:07:57;;;;;;;0.20;0.20;;;;;;;;;;5024146;28;20050;-92
2023/09/22 02:10:24;;;;;;;0.15;0.15;;;;;;;;;;5040120;28;20126;-92
2023/09/22 02:12:50;;;;;;;0.30;0.30;;;;;;;;;;5022921;28;20052;-90
2023/09/22 02:15:16;;;;;;;0.30;0.30;;;;;;;;;;5008260;28;20065;-90
2023/09/22 02:17:43;;;;;;;0.20;0.20;;;;;;;;;;5005248;28;20046;-90
2023/09/22 02:20:18;;;;;;;0.10;0.10;;;;;;;;;;5003179;28;20084;-91
2023/09/22 02:22:45;;;;;;;0.10;0.10;;;;;;;;;;5007042;28;20045;-92
2023/09/22 02:25:15;;;;;;;0.20;0.20;;;;;;;;;;5007043;28;20077;-93
2023/09/22 02:27:41;;;;;;;0.20;0.20;;;;;;;;;;5024057;28;20045;-92
2023/09/22 02:30:11;;;;;;;0.30;0.30;;;;;;;;;;5009072;28;20073;-92
2023/09/22 02:32:40;;;;;;;0.30;0.30;;;;;;;;;;5007362;28;20049;-92
2023/09/22 02:35:07;;;;;;;0.20;0.20;;;;;;;;;;5018713;28;20037;-90
2023/09/22 02:37:33;;;;;;;0.30;0.30;;;;;;;;;;5022188;28;20033;-91
2023/09/22 02:39:59;;;;;;;0.20;0.20;;;;;;;;;;5021313;28;20072;-91
2023/09/22 02:42:26;;;;;;;0.10;0.10;;;;;;;;;;5014027;28;20125;-92
2023/09/22 02:44:53;;;;;;;0.30;0.30;;;;;;;;;;5026830;28;20056;-92
2023/09/22 02:47:19;;;;;;;0.20;0.20;;;;;;;;;;5012122;28;20050;-92
2023/09/22 02:49:45;;;;;;;0.20;0.20;;;;;;;;;;5007762;28;20054;-92
2023/09/22 02:52:11;;;;;;;0.20;0.20;;;;;;;;;;4995291;28;20127;-93
2023/09/22 02:54:37;;;;;;;0.20;0.20;;;;;;;;;;5018711;28;20048;-92
2023/09/22 02:57:04;;;;;;;0.25;0.25;;;;;;;;;;5026971;28;20040;-93
2023/09/22 02:59:30;;;;;;;0.13;0.13;;;;;;;;;;5013095;28;20041;-92
2023/09/22 03:01:57;;;;;;;0.20;0.20;;;;;;;;;;5021371;28;20038;-91
2023/09/22 03:04:23;;;;;;;0.20;0.20;;;;;;;;;;5006315;28;20403;-92
2023/09/22 03:06:49;;;;;;;0.20;0.20;;;;;;;;;;5021162;28;20080;-91
2023/09/22 03:09:15;;;;;;;0.20;0.20;;;;;;;;;;5024831;28;20073;-93
2023/09/22 03:11:42;;;;;;;0.20;0.20;;;;;;;;;;5026656;28;20301;-92
2023/09/22 03:14:08;;;;;;;0.20;0.20;;;;;;;;;;5026799;28;20029;-92
2023/09/22 03:16:34;;;;;;;0.30;0.30;;;;;;;;;;5025504;28;20132;-90
2023/09/22 03:19:00;;;;;;;0.30;0.30;;;;;;;;;;5022905;28;20081;-92
2023/09/22 03:21:27;;;;;;;0.15;0.15;;;;;;;;;;5020582;28;20084;-92
2023/09/22 03:23:53;;;;;;;0.10;0.10;;;;;;;;;;5009307;28;20037;-91
2023/09/22 03:26:20;;;;;;;0.25;0.25;;;;;;;;;;5025766;28;20477;-92
2023/09/22 03:28:46;;;;;;;0.20;0.20;;;;;;;;;;5023279;28;20042;-91
2023/09/22 03:31:13;;;;;;;0.22;0.22;;;;;;;;;;5024901;28;20478;-91
2023/09/22 03:33:43;;;;;;;0.13;0.13;;;;;;;;;;5027073;28;20045;-92
2023/09/22 03:36:12;;;;;;;0.40;0.40;;;;;;;;;;5028367;28;20051;-92
2023/09/22 03:38:39;;;;;;;0.25;0.25;;;;;;;;;;5026350;28;20805;-93
2023/09/22 03:41:05;;;;;;;0.20;0.20;;;;;;;;;;5024189;28;20021;-91
2023/09/22 03:43:33;;;;;;;0.30;0.30;;;;;;;;;;5022633;28;20474;-93
2023/09/22 03:45:59;;;;;;;0.20;0.20;;;;;;;;;;5011951;28;20021;-92
2023/09/22 03:48:25;;;;;;;0.30;0.30;;;;;;;;;;5015162;28;20108;-91
2023/09/22 03:50:51;;;;;;;0.20;0.20;;;;;;;;;;5018731;28;20041;-91
2023/09/22 03:53:17;;;;;;;0.20;0.20;;;;;;;;;;5013574;28;20072;-92
2023/09/22 03:55:46;;;;;;;0.30;0.30;;;;;;;;;;5025813;28;20490;-91
2023/09/22 03:58:13;;;;;;;0.30;0.30;;;;;;;;;;5024077;28;20121;-90
2023/09/22 04:00:39;;;;;;;0.20;0.20;;;;;;;;;;5015080;28;20042;-91
2023/09/22 04:03:09;;;;;;;0.30;0.30;;;;;;;;;;5016661;28;20076;-91
2023/09/22 04:05:35;;;;;;;0.25;0.25;;;;;;;;;;5021861;28;20038;-89
2023/09/22 04:08:01;;;;;;;0.30;0.30;;;;;;;;;;5011639;28;20029;-90
2023/09/22 04:10:27;;;;;;;0.20;0.20;;;;;;;;;;5024392;28;20076;-90
2023/09/22 04:12:53;;;;;;;0.30;0.30;;;;;;;;;;5012704;28;20038;-89
2023/09/22 04:15:19;;;;;;;0.20;0.20;;;;;;;;;;5023527;28;20601;-90
2023/09/22 04:17:46;;;;;;;0.20;0.20;;;;;;;;;;5023827;28;20041;-91
2023/09/22 04:20:16;;;;;;;0.20;0.20;;;;;;;;;;5036726;28;20073;-91
2023/09/22 04:22:43;;;;;;;0.30;0.30;;;;;;;;;;5023450;28;20171;-91
2023/09/22 04:25:11;;;;;;;0.30;0.30;;;;;;;;;;5024354;28;20041;-91
2023/09/22 04:27:44;;;;;;;0.20;0.20;;;;;;;;;;5011144;28;20421;-91
2023/09/22 04:30:16;;;;;;;0.20;0.20;;;;;;;;;;5026547;28;20506;-92
2023/09/22 04:32:45;;;;;;;0.20;0.20;;;;;;;;;;5018234;28;20080;-91
2023/09/22 04:35:12;;;;;;;0.22;0.22;;;;;;;;;;5023262;28;20096;-92
2023/09/22 04:37:38;;;;;;;0.30;0.30;;;;;;;;;;5024017;28;20017;-91
2023/09/22 04:40:10;;;;;;;0.20;0.20;;;;;;;;;;5014786;28;20398;-90
2023/09/22 04:42:36;;;;;;;0.30;0.30;;;;;;;;;;5024320;28;20027;-91
2023/09/22 04:45:03;;;;;;;0.30;0.30;;;;;;;;;;5022995;28;20045;-91
2023/09/22 04:47:29;;;;;;;0.20;0.20;;;;;;;;;;5023246;28;20045;-90
2023/09/22 04:49:57;;;;;;;0.20;0.20;;;;;;;;;;5009294;28;20059;-89
2023/09/22 04:52:23;;;;;;;0.20;0.20;;;;;;;;;;5023984;28;20084;-89
2023/09/22 04:54:49;;;;;;;0.30;0.30;;;;;;;;;;5024649;28;20049;-91
2023/09/22 04:57:16;;;;;;;0.20;0.20;;;;;;;;;;5010543;28;20121;-91
2023/09/22 04:59:43;;;;;;;0.40;0.40;;;;;;;;;;5023201;28;20193;-89
2023/09/22 05:02:11;;;;;;;0.20;0.20;;;;;;;;;;5023791;28;20017;-89
2023/09/22 05:04:37;;;;;;;0.20;0.20;;;;;;;;;;5023473;28;20163;-92
2023/09/22 05:07:04;;;;;;;0.20;0.20;;;;;;;;;;5024484;28;20490;-91
2023/09/22 05:09:30;;;;;;;0.20;0.20;;;;;;;;;;5024348;28;20541;-91
2023/09/22 05:11:56;;;;;;;0.20;0.20;;;;;;;;;;5020925;28;20034;-92
2023/09/22 05:14:22;;;;;;;0.20;0.20;;;;;;;;;;5012453;28;20037;-91
2023/09/22 05:16:48;;;;;;;0.20;0.20;;;;;;;;;;5041220;28;20052;-91
2023/09/22 05:19:14;;;;;;;0.30;0.30;;;;;;;;;;5024542;28;20548;-92
2023/09/22 05:21:40;;;;;;;0.20;0.20;;;;;;;;;;5023907;28;20036;-92
2023/09/22 05:24:06;;;;;;;0.20;0.20;;;;;;;;;;5021877;28;20041;-90
2023/09/22 05:26:32;;;;;;;0.30;0.30;;;;;;;;;;5022774;28;20045;-92
2023/09/22 05:28:58;;;;;;;0.20;0.20;;;;;;;;;;5023604;28;20091;-91
2023/09/22 05:31:24;;;;;;;0.20;0.20;;;;;;;;;;5007705;28;20037;-90
2023/09/22 05:33:51;;;;;;;0.20;0.20;;;;;;;;;;5023173;28;20048;-92
2023/09/22 05:36:17;;;;;;;0.30;0.30;;;;;;;;;;5023172;28;20052;-91
2023/09/22 05:38:44;;;;;;;0.20;0.20;;;;;;;;;;5011964;28;20060;-91
2023/09/22 05:41:10;;;;;;;0.20;0.20;;;;;;;;;;5020637;28;20051;-91
2023/09/22 05:43:36;;;;;;;0.22;0.22;;;;;;;;;;5021940;28;20124;-90
2023/09/22 05:46:03;;;;;;;0.20;0.20;;;;;;;;;;5021405;28;20458;-89
2023/09/22 05:48:30;;;;;;;0.20;0.20;;;;;;;;;;5021395;28;20045;-91
2023/09/22 05:50:57;;;;;;;0.30;0.30;;;;;;;;;;5038845;28;20041;-91
2023/09/22 05:53:25;;;;;;;0.28;0.28;;;;;;;;;;5021349;28;20065;-91
2023/09/22 05:56:02;;;;;;;0.30;0.30;;;;;;;;;;5003058;28;20049;-91
2023/09/22 05:58:28;;;;;;;0.20;0.20;;;;;;;;;;5015318;28;20033;-92
2023/09/22 06:00:54;;;;;;;0.30;0.30;;;;;;;;;;5009458;28;20041;-91
2023/09/22 06:03:20;;;;;;;0.30;0.30;;;;;;;;;;5020236;28;20037;-90
2023/09/22 06:05:46;;;;;;;0.30;0.30;;;;;;;;;;5022682;28;20073;-90
2023/09/22 06:08:12;;;;;;;0.20;0.20;;;;;;;;;;5021017;28;20033;-91
2023/09/22 06:10:38;;;;;;;0.10;0.10;;;;;;;;;;5021455;28;20033;-92
2023/09/22 06:13:05;;;;;;;0.10;0.10;;;;;;;;;;5021310;28;20051;-91
2023/09/22 06:15:33;;;;;;;0.20;0.20;;;;;;;;;;5020608;28;20041;-91
2023/09/22 06:17:59;;;;;;;0.38;0.38;;;;;;;;;;5016196;28;20100;-91
2023/09/22 06:20:25;;;;;;;0.10;0.10;;;;;;;;;;5001946;28;20045;-91
2023/09/22 06:22:52;;;;;;;0.20;0.20;;;;;;;;;;5020664;28;20048;-92
2023/09/22 06:25:21;;;;;;;0.20;0.20;;;;;;;;;;5007521;28;20061;-91
2023/09/22 06:27:48;;;;;;;0.20;0.20;;;;;;;;;;5023141;28;20044;-90
2023/09/22 06:30:14;;;;;;;0.20;0.20;;;;;;;;;;5015014;28;20038;-90
2023/09/22 06:32:45;;;;;;;0.20;0.20;;;;;;;;;;5015303;28;20038;-89
2023/09/22 06:35:12;;;;;;;0.10;0.10;;;;;;;;;;5006560;28;20402;-90
2023/09/22 06:37:38;;;;;;;0.20;0.20;;;;;;;;;;5003274;28;20128;-91
2023/09/22 06:40:11;;;;;;;0.20;0.20;;;;;;;;;;5016761;28;20124;-91
2023/09/22 06:42:41;;;;;;;0.20;0.20;;;;;;;;;;5005442;28;20057;-91
2023/09/22 06:45:09;;;;;;;0.20;0.20;;;;;;;;;;5016750;28;20113;-91
2023/09/22 06:47:35;;;;;;;0.30;0.30;;;;;;;;;;5021530;28;20105;-90
2023/09/22 06:50:07;;;;;;;0.30;0.30;;;;;;;;;;5021813;28;20041;-91
2023/09/22 06:52:34;;;;;;;0.20;0.20;;;;;;;;;;5021581;28;20049;-90
2023/09/22 06:55:03;;;;;;;0.20;0.20;;;;;;;;;;5022052;28;20048;-90
2023/09/22 06:57:30;;;;;;;0.22;0.22;;;;;;;;;;5021456;28;20149;-91
2023/09/22 06:59:56;;;;;;;0.20;0.20;;;;;;;;;;5021843;28;20041;-92
2023/09/22 07:02:22;;;;;;;0.20;0.20;;;;;;;;;;5014417;28;20077;-91
2023/09/22 07:04:48;;;;;;;0.20;0.20;;;;;;;;;;5013766;28;20101;-89
2023/09/22 07:07:14;;;;;;;0.20;0.20;;;;;;;;;;5022574;28;20045;-89
2023/09/22 07:09:44;;;;;;;0.20;0.20;;;;;;;;;;5007184;28;20122;-89
2023/09/22 07:12:10;;;;;;;0.10;0.10;;;;;;;;;;5024901;28;20041;-90
2023/09/22 07:14:36;;;;;;;0.20;0.20;;;;;;;;;;5024802;28;20084;-89
2023/09/22 07:17:03;;;;;;;0.20;0.20;;;;;;;;;;5024856;28;20038;-89
2023/09/22 07:19:31;;;;;;;0.10;0.10;;;;;;;;;;5008060;28;20026;-90
2023/09/22 07:21:57;;;;;;;0.20;0.20;;;;;;;;;;5024306;28;20041;-89
2023/09/22 07:24:23;;;;;;;0.35;0.35;;;;;;;;;;5015946;28;20046;-90
2023/09/22 07:26:50;;;;;;;0.20;0.20;;;;;;;;;;5009445;28;20056;-89
2023/09/22 07:29:17;;;;;;;0.30;0.30;;;;;;;;;;5019411;28;20041;-89
2023/09/22 07:31:45;;;;;;;0.28;0.28;;;;;;;;;;5020789;28;20087;-91
2023/09/22 07:34:11;;;;;;;0.17;0.17;;;;;;;;;;5015505;28;20041;-88
2023/09/22 07:36:38;;;;;;;0.10;0.10;;;;;;;;;;5018818;28;20036;-90
2023/09/22 07:39:04;;;;;;;0.30;0.30;;;;;;;;;;5015611;28;20045;-92
2023/09/22 07:41:30;;;;;;;0.20;0.20;;;;;;;;;;5017064;28;20041;-90
2023/09/22 07:43:57;;;;;;;0.28;0.28;;;;;;;;;;5023703;28;20037;-90
2023/09/22 07:46:23;;;;;;;0.10;0.10;;;;;;;;;;5024434;28;20504;-91
2023/09/22 07:48:51;;;;;;;0.20;0.20;;;;;;;;;;5023582;28;20061;-89
2023/09/22 07:51:18;;;;;;;0.22;0.22;;;;;;;;;;5024651;28;20045;-91
2023/09/22 07:53:45;;;;;;;0.17;0.17;;;;;;;;;;5012615;28;20034;-89
2023/09/22 07:56:12;;;;;;;0.20;0.20;;;;;;;;;;5010509;28;20439;-88
2023/09/22 07:58:41;;;;;;;0.20;0.20;;;;;;;;;;5003925;28;20041;-88
2023/09/22 08:01:12;;;;;;;0.30;0.30;;;;;;;;;;5010206;28;20041;-87
2023/09/22 08:03:38;;;;;;;0.10;0.10;;;;;;;;;;5017294;28;20140;-88
2023/09/22 08:06:05;;;;;;;0.20;0.20;;;;;;;;;;5033531;28;20482;-88
2023/09/22 08:08:33;;;;;;;0.30;0.30;;;;;;;;;;5012413;28;20041;-88
2023/09/22 08:10:59;;;;;;;0.10;0.10;;;;;;;;;;5018785;28;20041;-88
2023/09/22 08:13:25;;;;;;;0.15;0.15;;;;;;;;;;5038491;28;20116;-87
2023/09/22 08:15:51;;;;;;;0.20;0.20;;;;;;;;;;5012293;28;20044;-87
2023/09/22 08:18:18;;;;;;;0.15;0.15;;;;;;;;;;5019012;28;20125;-87
2023/09/22 08:20:45;;;;;;;0.20;0.20;;;;;;;;;;5009358;28;20029;-87
2023/09/22 08:23:11;;;;;;;0.28;0.28;;;;;;;;;;5015824;28;20039;-88
2023/09/22 08:25:43;;;;;;;0.20;0.20;;;;;;;;;;5020717;28;20132;-88
2023/09/22 08:28:12;;;;;;;0.30;0.30;;;;;;;;;;5021183;28;20388;-87
2023/09/22 08:30:39;;;;;;;0.25;0.25;;;;;;;;;;5019440;28;20406;-88
2023/09/22 08:33:05;;;;;;;0.20;0.20;;;;;;;;;;5018620;28;20072;-88
2023/09/22 08:35:31;;;;;;;0.20;0.20;;;;;;;;;;5019315;28;20045;-87
2023/09/22 08:38:00;;;;;;;0.30;0.30;;;;;;;;;;5013123;28;20501;-88
2023/09/22 08:40:26;;;;;;;0.20;0.20;;;;;;;;;;5031098;28;20041;-88
2023/09/22 08:42:52;;;;;;;0.10;0.10;;;;;;;;;;5016411;28;20044;-88
2023/09/22 08:45:19;;;;;;;0.20;0.20;;;;;;;;;;5021462;28;20574;-88
2023/09/22 08:47:47;;;;;;;0.30;0.30;;;;;;;;;;5011025;28;20417;-87
2023/09/22 08:50:14;;;;;;;0.10;0.10;;;;;;;;;;5015452;28;20041;-88
2023/09/22 08:52:41;;;;;;;0.20;0.20;;;;;;;;;;5025067;28;20033;-88
2023/09/22 08:55:08;;;;;;;0.20;0.20;;;;;;;;;;5017112;28;20505;-87
2023/09/22 08:57:35;;;;;;;0.20;0.20;;;;;;;;;;5007847;28;20037;-88
2023/09/22 09:00:10;;;;;;;0.30;0.30;;;;;;;;;;5012167;28;20033;-86
2023/09/22 09:02:36;;;;;;;0.20;0.20;;;;;;;;;;5023542;28;20037;-87
2023/09/22 09:05:02;;;;;;;0.20;0.20;;;;;;;;;;5023660;28;20105;-87
2023/09/22 09:07:28;;;;;;;0.20;0.20;;;;;;;;;;5017890;28;20042;-86
2023/09/22 09:09:56;;;;;;;0.30;0.30;;;;;;;;;;5010272;28;20067;-87
2023/09/22 09:12:22;;;;;;;0.30;0.30;;;;;;;;;;5019652;28;20501;-88
2023/09/22 09:14:49;;;;;;;0.20;0.20;;;;;;;;;;5022971;28;20060;-88
2023/09/22 09:17:19;;;;;;;0.30;0.30;;;;;;;;;;5022440;28;20405;-87
2023/09/22 09:19:53;;;;;;;0.10;0.10;;;;;;;;;;5003247;28;20120;-87
2023/09/22 09:22:19;;;;;;;0.28;0.28;;;;;;;;;;5016329;28;20120;-87
2023/09/22 09:24:45;;;;;;;0.10;0.10;;;;;;;;;;5034899;28;20130;-88
2023/09/22 09:27:17;;;;;;;0.20;0.20;;;;;;;;;;5019499;28;20052;-88
2023/09/22 09:29:44;;;;;;;0.35;0.35;;;;;;;;;;5023056;28;20045;-88
2023/09/22 09:32:10;;;;;;;0.20;0.20;;;;;;;;;;5027078;28;20473;-86
2023/09/22 09:34:40;;;;;;;0.10;0.10;;;;;;;;;;5012958;28;20076;-87
2023/09/22 09:37:13;;;;;;;0.13;0.13;;;;;;;;;;5019359;28;20438;-88
2023/09/22 09:39:46;;;;;;;0.15;0.15;;;;;;;;;;5021786;28;20478;-87
2023/09/22 09:42:17;;;;;;;0.10;0.10;;;;;;;;;;5020598;28;20025;-88
2023/09/22 09:44:50;;;;;;;0.30;0.30;;;;;;;;;;5019918;28;20041;-87
2023/09/22 09:47:22;;;;;;;0.30;0.30;;;;;;;;;;5033546;28;20121;-87
2023/09/22 09:49:53;;;;;;;0.20;0.20;;;;;;;;;;5008381;28;20505;-88
2023/09/22 09:52:23;;;;;;;0.20;0.20;;;;;;;;;;5037624;28;20033;-88
2023/09/22 09:54:54;;;;;;;0.10;0.10;;;;;;;;;;5037166;28;20046;-88
2023/09/22 09:57:21;;;;;;;0.20;0.20;;;;;;;;;;5016528;28;20035;-87
2023/09/22 09:59:47;;;;;;;0.20;0.20;;;;;;;;;;5016531;28;20129;-86
2023/09/22 10:02:14;;;;;;;0.30;0.30;;;;;;;;;;5028994;28;20042;-87
2023/09/22 10:04:40;;;;;;;0.28;0.28;;;;;;;;;;5017154;28;20040;-87
2023/09/22 10:07:07;;;;;;;0.20;0.20;;;;;;;;;;5006125;28;20156;-86
2023/09/22 10:09:33;;;;;;;0.25;0.25;;;;;;;;;;5019299;28;20072;-87
2023/09/22 10:12:00;;;;;;;0.30;0.30;;;;;;;;;;5019467;28;20072;-87
2023/09/22 10:14:43;;;;;;;0.20;0.20;;;;;;;;;;5007737;28;20376;-88
2023/09/22 10:17:19;;;;;;;0.10;0.10;;;;;;;;;;5015895;28;20088;-86
2023/09/22 10:19:46;;;;;;;0.20;0.20;;;;;;;;;;5011002;28;20056;-86
2023/09/22 10:22:12;;;;;;;0.30;0.30;;;;;;;;;;5016149;28;20494;-87
2023/09/22 10:24:38;;;;;;;0.20;0.20;;;;;;;;;;5019151;28;20136;-88
2023/09/22 10:27:08;;;;;;;0.20;0.20;;;;;;;;;;5036320;28;20045;-87
2023/09/22 10:29:34;;;;;;;0.20;0.20;;;;;;;;;;5032839;28;20086;-87
2023/09/22 10:32:20;;;;;;;0.20;0.20;;;;;;;;;;5014524;28;20038;-86
2023/09/22 10:35:04;;;;;;;0.10;0.10;;;;;;;;;;5012652;28;20069;-87
2023/09/22 10:37:32;;;;;;;0.20;0.20;;;;;;;;;;5011212;28;20041;-87
2023/09/22 10:40:16;;;;;;;0.10;0.10;;;;;;;;;;5019065;28;20466;-86
2023/09/22 10:42:50;;;;;;;0.25;0.25;;;;;;;;;;5019325;28;20045;-86
2023/09/22 10:45:19;;;;;;;0.20;0.20;;;;;;;;;;5023120;28;20507;-87
2023/09/22 10:47:46;;;;;;;0.13;0.13;;;;;;;;;;5023557;28;20548;-86
2023/09/22 10:50:19;;;;;;;0.20;0.20;;;;;;;;;;5023770;28;20080;-87
2023/09/22 10:52:53;;;;;;;0.20;0.20;;;;;;;;;;5024087;28;20041;-87
2023/09/22 10:55:30;;;;;;;0.10;0.10;;;;;;;;;;5040681;28;20107;-88
2023/09/22 10:57:57;;;;;;;0.20;0.20;;;;;;;;;;5023931;28;20038;-87
2023/09/22 11:00:23;;;;;;;0.15;0.15;;;;;;;;;;5024525;28;20456;-85
2023/09/22 11:02:49;;;;;;;0.20;0.20;;;;;;;;;;5022903;28;20049;-86
2023/09/22 11:05:19;;;;;;;0.20;0.20;;;;;;;;;;5040589;28;20088;-86
2023/09/22 11:07:46;;;;;;;0.15;0.15;;;;;;;;;;5024061;28;20063;-86
2023/09/22 11:10:20;;;;;;;0.20;0.20;;;;;;;;;;5024096;28;20132;-86
2023/09/22 11:12:49;;;;;;;0.20;0.20;;;;;;;;;;5039922;28;20084;-86
2023/09/22 11:15:15;;;;;;;0.30;0.30;;;;;;;;;;5023161;28;20073;-87
2023/09/22 11:17:46;;;;;;;0.28;0.28;;;;;;;;;;5039533;28;20064;-87
2023/09/22 11:20:16;;;;;;;0.10;0.10;;;;;;;;;;5023366;28;20041;-85
2023/09/22 11:22:43;;;;;;;0.22;0.22;;;;;;;;;;5039323;28;20045;-85
2023/09/22 11:25:12;;;;;;;0.20;0.20;;;;;;;;;;5021756;28;20131;-86
2023/09/22 11:27:48;;;;;;;0.10;0.10;;;;;;;;;;5023119;28;20048;-86
2023/09/22 11:30:16;;;;;;;0.20;0.20;;;;;;;;;;5022178;28;20033;-85
2023/09/22 11:32:43;;;;;;;0.10;0.10;;;;;;;;;;5022482;28;20117;-86
2023/09/22 11:35:10;;;;;;;0.13;0.13;;;;;;;;;;5039710;28;20041;-86
2023/09/22 11:37:37;;;;;;;0.20;0.20;;;;;;;;;;5022373;28;20045;-88
2023/09/22 11:40:13;;;;;;;0.10;0.10;;;;;;;;;;5022150;28;20042;-87
2023/09/22 11:42:39;;;;;;;0.30;0.30;;;;;;;;;;5022899;28;20037;-85
2023/09/22 11:45:06;;;;;;;0.20;0.20;;;;;;;;;;5038952;28;20092;-86
2023/09/22 11:47:32;;;;;;;0.13;0.13;;;;;;;;;;5039597;28;20052;-86
2023/09/22 11:49:58;;;;;;;0.20;0.20;;;;;;;;;;5023223;28;20052;-87
2023/09/22 11:52:28;;;;;;;0.20;0.20;;;;;;;;;;5022083;28;20029;-86
2023/09/22 11:54:54;;;;;;;0.10;0.10;;;;;;;;;;5022491;28;20049;-86
2023/09/22 11:57:20;;;;;;;0.30;0.30;;;;;;;;;;5039200;28;20088;-87
2023/09/22 11:59:48;;;;;;;0.30;0.30;;;;;;;;;;5022304;28;20147;-87
2023/09/22 12:02:14;;;;;;;0.20;0.20;;;;;;;;;;5023076;28;20037;-86
2023/09/22 12:04:40;;;;;;;0.10;0.10;;;;;;;;;;5023216;28;20033;-86
2023/09/22 12:07:06;;;;;;;0.17;0.17;;;;;;;;;;5023704;28;20065;-87
2023/09/22 12:09:32;;;;;;;0.10;0.10;;;;;;;;;;5022711;28;20041;-85
2023/09/22 12:11:58;;;;;;;0.22;0.22;;;;;;;;;;5022108;28;20043;-86
2023/09/22 12:14:24;;;;;;;0.20;0.20;;;;;;;;;;5021873;28;20041;-86
2023/09/22 12:16:51;;;;;;;0.20;0.20;;;;;;;;;;5021318;28;20052;-86
2023/09/22 12:19:19;;;;;;;0.10;0.10;;;;;;;;;;5022750;28;20041;-86
2023/09/22 12:21:45;;;;;;;0.10;0.10;;;;;;;;;;5022911;28;20045;-87
2023/09/22 12:24:11;;;;;;;0.22;0.22;;;;;;;;;;5039278;28;20081;-86
2023/09/22 12:26:37;;;;;;;0.28;0.28;;;;;;;;;;5039882;28;20126;-87
2023/09/22 12:29:05;;;;;;;0.15;0.15;;;;;;;;;;5040378;28;20041;-86
2023/09/22 12:31:31;;;;;;;0.20;0.20;;;;;;;;;;5023301;28;20567;-86
2023/09/22 12:33:57;;;;;;;0.10;0.10;;;;;;;;;;5023460;28;20152;-88
2023/09/22 12:36:24;;;;;;;0.20;0.20;;;;;;;;;;5024504;28;20390;-88
2023/09/22 12:38:49;;;;;;;0.20;0.20;;;;;;;;;;5023353;28;20041;-87
2023/09/22 12:41:15;;;;;;;0.10;0.10;;;;;;;;;;5023222;28;20130;-87
2023/09/22 12:43:42;;;;;;;0.30;0.30;;;;;;;;;;5022768;28;20049;-87
2023/09/22 12:46:17;;;;;;;0.20;0.20;;;;;;;;;;5024029;28;20397;-88
2023/09/22 12:48:43;;;;;;;0.10;0.10;;;;;;;;;;5023616;28;20045;-88
2023/09/22 12:51:12;;;;;;;0.20;0.20;;;;;;;;;;5023924;28;20026;-87
2023/09/22 12:53:38;;;;;;;0.20;0.20;;;;;;;;;;5039645;28;20046;-88
2023/09/22 12:56:04;;;;;;;0.10;0.10;;;;;;;;;;5023413;28;20044;-87
2023/09/22 12:58:30;;;;;;;0.10;0.10;;;;;;;;;;5039145;28;20379;-87
2023/09/22 13:00:57;;;;;;;0.20;0.20;;;;;;;;;;5023094;28;20037;-89
2023/09/22 13:03:23;;;;;;;0.08;0.08;;;;;;;;;;5039838;28;20053;-87
2023/09/22 13:05:50;;;;;;;0.10;0.10;;;;;;;;;;5022564;28;20089;-87
2023/09/22 13:08:17;;;;;;;0.10;0.10;;;;;;;;;;5037829;28;20041;-87
2023/09/22 13:10:43;;;;;;;0.03;0.03;;;;;;;;;;5018642;28;20068;-87
2023/09/22 13:13:10;;;;;;;0.10;0.10;;;;;;;;;;5004352;28;20048;-88
2023/09/22 13:15:36;;;;;;;0.10;0.10;;;;;;;;;;5001751;28;20053;-88
2023/09/22 13:18:02;;;;;;;0.10;0.10;;;;;;;;;;5002140;28;20450;-88
2023/09/22 13:20:33;;;;;;;0.30;0.30;;;;;;;;;;5001886;28;20045;-88
2023/09/22 13:23:01;;;;;;;0.00;0.00;;;;;;;;;;5004332;28;20043;-88
2023/09/22 13:25:27;;;;;;;0.20;0.20;;;;;;;;;;5038360;28;20124;-87
2023/09/22 13:27:52;;;;;;;0.17;0.17;;;;;;;;;;5023052;28;20407;-87
2023/09/22 13:30:20;;;;;;;0.10;0.10;;;;;;;;;;5022348;28;20104;-87
2023/09/22 13:32:47;;;;;;;0.10;0.10;;;;;;;;;;5019806;28;20096;-87
2023/09/22 13:35:13;;;;;;;0.03;0.03;;;;;;;;;;5017107;28;20018;-87
2023/09/22 13:37:38;;;;;;;0.10;0.10;;;;;;;;;;5011955;28;20064;-86
2023/09/22 13:40:10;;;;;;;0.15;0.15;;;;;;;;;;5028842;28;20021;-87
2023/09/22 13:42:37;;;;;;;0.20;0.20;;;;;;;;;;5006951;28;20103;-87
2023/09/22 13:45:05;;;;;;;0.15;0.15;;;;;;;;;;5007513;28;20056;-86
2023/09/22 13:47:31;;;;;;;0.10;0.10;;;;;;;;;;5019754;28;20049;-86
2023/09/22 13:49:58;;;;;;;0.10;0.10;;;;;;;;;;5022302;28;20049;-87
2023/09/22 13:52:24;;;;;;;0.13;0.13;;;;;;;;;;5038331;28;20086;-86
2023/09/22 13:54:50;;;;;;;0.20;0.20;;;;;;;;;;5021211;28;20041;-85
2023/09/22 13:57:16;;;;;;;0.13;0.13;;;;;;;;;;5020895;28;20040;-86
2023/09/22 13:59:43;;;;;;;0.15;0.15;;;;;;;;;;5034473;28;20040;-87
2023/09/22 14:02:09;;;;;;;0.10;0.10;;;;;;;;;;5006191;28;20132;-87
2023/09/22 14:04:36;;;;;;;0.20;0.20;;;;;;;;;;5002422;28;20510;-87
2023/09/22 14:07:03;;;;;;;0.13;0.13;;;;;;;;;;5008057;28;20033;-87
2023/09/22 14:09:29;;;;;;;0.10;0.10;;;;;;;;;;5010262;28;20125;-87
2023/09/22 14:11:55;;;;;;;0.10;0.10;;;;;;;;;;5002454;28;20345;-87
2023/09/22 14:14:21;;;;;;;0.20;0.20;;;;;;;;;;5009097;28;20048;-86
2023/09/22 14:16:47;;;;;;;0.17;0.17;;;;;;;;;;5013330;28;20021;-87
2023/09/22 14:19:14;;;;;;;0.15;0.15;;;;;;;;;;5008005;28;20102;-88
2023/09/22 14:21:40;;;;;;;0.15;0.15;;;;;;;;;;5026917;28;20437;-88
2023/09/22 14:24:06;;;;;;;0.10;0.10;;;;;;;;;;5036669;28;20417;-87
2023/09/22 14:26:32;;;;;;;0.30;0.30;;;;;;;;;;5018817;28;20041;-87
2023/09/22 14:28:58;;;;;;;0.13;0.13;;;;;;;;;;5008063;28;20046;-87
2023/09/22 14:31:24;;;;;;;0.20;0.20;;;;;;;;;;5002612;28;20042;-86
2023/09/22 14:33:51;;;;;;;0.20;0.20;;;;;;;;;;5001855;28;20045;-86
2023/09/22 14:36:17;;;;;;;0.20;0.20;;;;;;;;;;5012877;28;20517;-86
2023/09/22 14:38:43;;;;;;;0.10;0.10;;;;;;;;;;5027361;28;20041;-86
2023/09/22 14:41:09;;;;;;;0.10;0.10;;;;;;;;;;5017707;28;20046;-86
2023/09/22 14:43:35;;;;;;;0.10;0.10;;;;;;;;;;5001785;28;20450;-86